sensor_id;sensor_type;location;lat;lon;timestamp;pressure;altitude;pressure_sealevel;temperature;humidity
80934;BME280;70392;51.144;17.050;2023-06-24T00:00:42;100653.48;;;19.70;89.93
80934;BME280;70392;51.144;17.050;2023-06-24T00:03:18;100654.16;;;19.73;89.90
80934;BME280;70392;51.144;17.050;2023-06-24T00:05:50;100657.80;;;19.74;89.82
80934;BME280;70392;51.144;17.050;2023-06-24T00:08:07;100661.73;;;19.71;89.80
80934;BME280;70392;51.144;17.050;2023-06-24T00:10:24;100658.62;;;19.68;89.78
80934;BME280;70392;51.144;17.050;2023-06-24T00:12:48;100665.65;;;19.65;89.49
80934;BME280;70392;51.144;17.050;2023-06-24T00:15:06;100664.13;;;19.62;89.51
80934;BME280;70392;51.144;17.050;2023-06-24T00:17:22;100659.15;;;19.59;89.63
80934;BME280;70392;51.144;17.050;2023-06-24T00:20:04;100658.65;;;19.59;89.19
80934;BME280;70392;51.144;17.050;2023-06-24T00:22:23;100662.57;;;19.58;89.21
80934;BME280;70392;51.144;17.050;2023-06-24T00:24:42;100665.55;;;19.54;89.33
80934;BME280;70392;51.144;17.050;2023-06-24T00:26:58;100664.31;;;19.48;89.33
80934;BME280;70392;51.144;17.050;2023-06-24T00:29:15;100662.35;;;19.43;89.15
80934;BME280;70392;51.144;17.050;2023-06-24T00:31:31;100660.59;;;19.41;89.37
80934;BME280;70392;51.144;17.050;2023-06-24T00:33:47;100660.39;;;19.38;89.32
80934;BME280;70392;51.144;17.050;2023-06-24T00:36:11;100666.48;;;19.35;89.37
80934;BME280;70392;51.144;17.050;2023-06-24T00:38:32;100673.48;;;19.35;89.50
80934;BME280;70392;51.144;17.050;2023-06-24T00:40:48;100671.09;;;19.33;89.31
80934;BME280;70392;51.144;17.050;2023-06-24T00:43:12;100677.19;;;19.33;89.27
80934;BME280;70392;51.144;17.050;2023-06-24T00:45:28;100674.32;;;19.27;89.18
80934;BME280;70392;51.144;17.050;2023-06-24T00:47:48;100680.51;;;19.25;89.00
80934;BME280;70392;51.144;17.050;2023-06-24T00:50:08;100679.49;;;19.22;88.83
80934;BME280;70392;51.144;17.050;2023-06-24T00:52:24;100690.92;;;19.18;88.85
80934;BME280;70392;51.144;17.050;2023-06-24T00:54:41;100691.09;;;19.15;88.99
80934;BME280;70392;51.144;17.050;2023-06-24T00:56:57;100686.42;;;19.14;89.24
80934;BME280;70392;51.144;17.050;2023-06-24T00:59:37;100689.38;;;19.16;89.14
80934;BME280;70392;51.144;17.050;2023-06-24T01:01:54;100695.34;;;19.14;88.99
80934;BME280;70392;51.144;17.050;2023-06-24T01:04:36;100690.97;;;19.14;88.61
80934;BME280;70392;51.144;17.050;2023-06-24T01:06:52;100690.66;;;19.12;88.78
80934;BME280;70392;51.144;17.050;2023-06-24T01:09:09;100691.07;;;19.05;88.50
80934;BME280;70392;51.144;17.050;2023-06-24T01:11:29;100694.17;;;19.02;88.61
80934;BME280;70392;51.144;17.050;2023-06-24T01:13:45;100702.73;;;18.97;88.54
80934;BME280;70392;51.144;17.050;2023-06-24T01:16:08;100709.91;;;18.96;89.01
80934;BME280;70392;51.144;17.050;2023-06-24T01:18:48;100712.84;;;18.97;89.17
80934;BME280;70392;51.144;17.050;2023-06-24T01:26:46;100734.47;;;18.98;88.17
80934;BME280;70392;51.144;17.050;2023-06-24T01:29:20;100745.76;;;18.98;87.54
80934;BME280;70392;51.144;17.050;2023-06-24T01:31:53;100758.01;;;18.91;87.76
80934;BME280;70392;51.144;17.050;2023-06-24T01:37:18;100760.21;;;18.68;86.80
80934;BME280;70392;51.144;17.050;2023-06-24T01:39:56;100767.38;;;18.57;85.93
80934;BME280;70392;51.144;17.050;2023-06-24T01:42:16;100773.10;;;18.47;86.42
80934;BME280;70392;51.144;17.050;2023-06-24T01:44:33;100774.66;;;18.34;85.97
80934;BME280;70392;51.144;17.050;2023-06-24T01:46:57;100776.18;;;18.24;86.75
80934;BME280;70392;51.144;17.050;2023-06-24T01:49:16;100784.59;;;18.17;86.81
80934;BME280;70392;51.144;17.050;2023-06-24T01:51:43;100777.52;;;18.07;86.16
80934;BME280;70392;51.144;17.050;2023-06-24T01:54:03;100778.95;;;18.00;86.88
80934;BME280;70392;51.144;17.050;2023-06-24T01:56:22;100783.43;;;17.93;87.01
80934;BME280;70392;51.144;17.050;2023-06-24T01:58:41;100788.59;;;17.88;87.13
80934;BME280;70392;51.144;17.050;2023-06-24T02:01:02;100799.06;;;17.80;86.99
80934;BME280;70392;51.144;17.050;2023-06-24T02:03:21;100798.67;;;17.76;87.10
80934;BME280;70392;51.144;17.050;2023-06-24T02:05:40;100799.73;;;17.72;87.61
80934;BME280;70392;51.144;17.050;2023-06-24T02:07:57;100793.68;;;17.67;87.22
80934;BME280;70392;51.144;17.050;2023-06-24T02:10:15;100786.90;;;17.62;86.73
80934;BME280;70392;51.144;17.050;2023-06-24T02:12:32;100790.14;;;17.55;86.34
80934;BME280;70392;51.144;17.050;2023-06-24T02:14:50;100792.10;;;17.49;86.56
80934;BME280;70392;51.144;17.050;2023-06-24T02:17:10;100792.52;;;17.44;87.10
80934;BME280;70392;51.144;17.050;2023-06-24T02:19:31;100803.44;;;17.42;87.50
80934;BME280;70392;51.144;17.050;2023-06-24T02:21:54;100804.76;;;17.41;87.71
80934;BME280;70392;51.144;17.050;2023-06-24T02:24:14;100809.14;;;17.37;87.94
80934;BME280;70392;51.144;17.050;2023-06-24T02:26:31;100803.00;;;17.30;87.33
80934;BME280;70392;51.144;17.050;2023-06-24T02:28:48;100819.84;;;17.26;88.18
80934;BME280;70392;51.144;17.050;2023-06-24T02:31:06;100806.59;;;17.16;88.80
80934;BME280;70392;51.144;17.050;2023-06-24T02:33:24;100811.29;;;17.09;89.26
80934;BME280;70392;51.144;17.050;2023-06-24T02:35:42;100821.64;;;17.00;89.45
80934;BME280;70392;51.144;17.050;2023-06-24T02:38:01;100818.73;;;16.96;89.75
80934;BME280;70392;51.144;17.050;2023-06-24T02:40:25;100824.89;;;16.94;90.04
80934;BME280;70392;51.144;17.050;2023-06-24T02:42:41;100824.25;;;16.90;90.09
80934;BME280;70392;51.144;17.050;2023-06-24T02:45:00;100830.31;;;16.84;90.11
80934;BME280;70392;51.144;17.050;2023-06-24T02:47:20;100834.92;;;16.79;90.14
80934;BME280;70392;51.144;17.050;2023-06-24T02:49:51;100832.58;;;16.79;90.23
80934;BME280;70392;51.144;17.050;2023-06-24T02:52:09;100838.46;;;16.78;90.30
80934;BME280;70392;51.144;17.050;2023-06-24T02:54:26;100829.73;;;16.73;90.24
80934;BME280;70392;51.144;17.050;2023-06-24T02:56:44;100834.74;;;16.65;89.74
80934;BME280;70392;51.144;17.050;2023-06-24T02:59:00;100841.61;;;16.58;90.03
80934;BME280;70392;51.144;17.050;2023-06-24T03:01:24;100840.69;;;16.55;90.36
80934;BME280;70392;51.144;17.050;2023-06-24T03:03:43;100850.97;;;16.52;90.43
80934;BME280;70392;51.144;17.050;2023-06-24T03:06:26;100857.35;;;16.56;90.19
80934;BME280;70392;51.144;17.050;2023-06-24T03:08:44;100858.08;;;16.53;90.35
80934;BME280;70392;51.144;17.050;2023-06-24T03:11:02;100866.63;;;16.48;90.33
80934;BME280;70392;51.144;17.050;2023-06-24T03:13:19;100869.47;;;16.44;90.37
80934;BME280;70392;51.144;17.050;2023-06-24T03:15:35;100867.20;;;16.40;90.41
80934;BME280;70392;51.144;17.050;2023-06-24T03:18:12;100869.46;;;16.40;90.42
80934;BME280;70392;51.144;17.050;2023-06-24T03:20:36;100878.25;;;16.38;90.47
80934;BME280;70392;51.144;17.050;2023-06-24T03:22:56;100881.80;;;16.38;90.56
80934;BME280;70392;51.144;17.050;2023-06-24T03:25:15;100879.23;;;16.36;90.60
80934;BME280;70392;51.144;17.050;2023-06-24T03:27:31;100886.79;;;16.33;90.67
80934;BME280;70392;51.144;17.050;2023-06-24T03:29:48;100887.68;;;16.31;90.76
80934;BME280;70392;51.144;17.050;2023-06-24T03:32:06;100898.26;;;16.32;90.91
80934;BME280;70392;51.144;17.050;2023-06-24T03:34:27;100902.80;;;16.31;91.08
80934;BME280;70392;51.144;17.050;2023-06-24T03:36:43;100900.94;;;16.32;91.09
80934;BME280;70392;51.144;17.050;2023-06-24T03:38:59;100905.30;;;16.33;91.08
80934;BME280;70392;51.144;17.050;2023-06-24T03:41:15;100911.63;;;16.32;91.07
80934;BME280;70392;51.144;17.050;2023-06-24T03:43:35;100913.62;;;16.32;90.88
80934;BME280;70392;51.144;17.050;2023-06-24T03:45:51;100915.64;;;16.29;90.82
80934;BME280;70392;51.144;17.050;2023-06-24T03:48:09;100919.19;;;16.29;90.94
80934;BME280;70392;51.144;17.050;2023-06-24T03:50:26;100915.40;;;16.30;90.95
80934;BME280;70392;51.144;17.050;2023-06-24T03:52:44;100926.16;;;16.31;91.11
80934;BME280;70392;51.144;17.050;2023-06-24T03:55:08;100921.89;;;16.34;91.00
80934;BME280;70392;51.144;17.050;2023-06-24T03:57:35;100923.82;;;16.37;90.85
80934;BME280;70392;51.144;17.050;2023-06-24T03:59:51;100926.97;;;16.36;90.83
80934;BME280;70392;51.144;17.050;2023-06-24T04:02:08;100927.29;;;16.34;90.78
80934;BME280;70392;51.144;17.050;2023-06-24T04:04:24;100928.51;;;16.34;90.90
80934;BME280;70392;51.144;17.050;2023-06-24T04:06:47;100926.83;;;16.30;90.73
80934;BME280;70392;51.144;17.050;2023-06-24T04:09:03;100929.87;;;16.36;90.77
80934;BME280;70392;51.144;17.050;2023-06-24T04:11:19;100926.26;;;16.38;90.80
80934;BME280;70392;51.144;17.050;2023-06-24T04:13:41;100927.79;;;16.41;90.67
80934;BME280;70392;51.144;17.050;2023-06-24T04:15:58;100938.55;;;16.42;90.51
80934;BME280;70392;51.144;17.050;2023-06-24T04:18:17;100945.41;;;16.41;90.25
80934;BME280;70392;51.144;17.050;2023-06-24T04:20:36;100939.43;;;16.41;90.25
80934;BME280;70392;51.144;17.050;2023-06-24T04:22:54;100939.20;;;16.41;90.23
80934;BME280;70392;51.144;17.050;2023-06-24T04:25:11;100950.60;;;16.42;90.06
80934;BME280;70392;51.144;17.050;2023-06-24T04:27:28;100939.59;;;16.37;89.83
80934;BME280;70392;51.144;17.050;2023-06-24T04:29:43;100940.46;;;16.36;90.05
80934;BME280;70392;51.144;17.050;2023-06-24T04:32:00;100944.74;;;16.34;90.05
80934;BME280;70392;51.144;17.050;2023-06-24T04:34:26;100947.66;;;16.34;89.94
80934;BME280;70392;51.144;17.050;2023-06-24T04:36:42;100948.30;;;16.33;89.97
80934;BME280;70392;51.144;17.050;2023-06-24T04:38:58;100961.31;;;16.29;89.86
80934;BME280;70392;51.144;17.050;2023-06-24T04:41:15;100963.88;;;16.28;89.93
80934;BME280;70392;51.144;17.050;2023-06-24T04:43:32;100966.88;;;16.27;89.92
80934;BME280;70392;51.144;17.050;2023-06-24T04:45:48;100973.63;;;16.23;89.90
80934;BME280;70392;51.144;17.050;2023-06-24T04:48:05;100977.67;;;16.22;89.93
80934;BME280;70392;51.144;17.050;2023-06-24T04:50:28;100979.19;;;16.20;90.02
80934;BME280;70392;51.144;17.050;2023-06-24T04:52:44;100983.78;;;16.18;90.04
80934;BME280;70392;51.144;17.050;2023-06-24T04:55:01;100982.02;;;16.17;90.10
80934;BME280;70392;51.144;17.050;2023-06-24T04:57:27;100982.42;;;16.17;90.11
80934;BME280;70392;51.144;17.050;2023-06-24T04:59:44;100989.80;;;16.23;90.33
80934;BME280;70392;51.144;17.050;2023-06-24T05:02:08;100992.13;;;16.24;89.88
80934;BME280;70392;51.144;17.050;2023-06-24T05:04:25;101001.91;;;16.23;89.87
80934;BME280;70392;51.144;17.050;2023-06-24T05:06:51;100999.59;;;16.24;89.67
80934;BME280;70392;51.144;17.050;2023-06-24T05:09:06;101015.17;;;16.23;89.56
80934;BME280;70392;51.144;17.050;2023-06-24T05:11:23;101016.80;;;16.26;89.61
80934;BME280;70392;51.144;17.050;2023-06-24T05:13:39;101022.38;;;16.26;89.58
80934;BME280;70392;51.144;17.050;2023-06-24T05:15:55;101025.06;;;16.26;89.55
80934;BME280;70392;51.144;17.050;2023-06-24T05:18:11;101017.63;;;16.30;89.62
80934;BME280;70392;51.144;17.050;2023-06-24T05:20:30;101023.24;;;16.35;89.54
80934;BME280;70392;51.144;17.050;2023-06-24T05:22:46;101018.38;;;16.37;89.40
80934;BME280;70392;51.144;17.050;2023-06-24T05:25:03;101024.23;;;16.40;89.48
80934;BME280;70392;51.144;17.050;2023-06-24T05:27:19;101028.63;;;16.49;89.56
80934;BME280;70392;51.144;17.050;2023-06-24T05:29:37;101028.80;;;16.56;89.54
80934;BME280;70392;51.144;17.050;2023-06-24T05:31:59;101029.65;;;16.66;89.46
80934;BME280;70392;51.144;17.050;2023-06-24T05:34:15;101031.20;;;16.74;89.22
80934;BME280;70392;51.144;17.050;2023-06-24T05:37:06;101022.82;;;16.80;88.97
80934;BME280;70392;51.144;17.050;2023-06-24T05:39:43;101038.01;;;17.11;87.54
80934;BME280;70392;51.144;17.050;2023-06-24T05:41:59;101038.97;;;17.03;86.93
80934;BME280;70392;51.144;17.050;2023-06-24T05:44:18;101038.48;;;16.97;87.35
80934;BME280;70392;51.144;17.050;2023-06-24T05:46:36;101033.27;;;16.90;87.37
80934;BME280;70392;51.144;17.050;2023-06-24T05:48:52;101038.99;;;16.87;87.55
80934;BME280;70392;51.144;17.050;2023-06-24T05:51:09;101040.55;;;16.89;87.87
80934;BME280;70392;51.144;17.050;2023-06-24T05:53:27;101039.59;;;16.92;87.83
80934;BME280;70392;51.144;17.050;2023-06-24T05:55:42;101036.10;;;16.95;87.65
80934;BME280;70392;51.144;17.050;2023-06-24T05:57:59;101028.52;;;16.98;87.31
80934;BME280;70392;51.144;17.050;2023-06-24T06:00:25;101039.32;;;17.08;87.28
80934;BME280;70392;51.144;17.050;2023-06-24T06:02:41;101036.90;;;17.17;87.29
80934;BME280;70392;51.144;17.050;2023-06-24T06:04:57;101028.81;;;17.20;87.16
80934;BME280;70392;51.144;17.050;2023-06-24T06:07:13;101031.16;;;17.28;87.33
80934;BME280;70392;51.144;17.050;2023-06-24T06:09:29;101039.10;;;17.36;87.29
80934;BME280;70392;51.144;17.050;2023-06-24T06:11:45;101044.57;;;17.44;87.21
80934;BME280;70392;51.144;17.050;2023-06-24T06:14:10;101046.57;;;17.55;86.97
80934;BME280;70392;51.144;17.050;2023-06-24T06:16:28;101052.61;;;17.58;86.62
80934;BME280;70392;51.144;17.050;2023-06-24T06:18:44;101050.57;;;17.65;86.41
80934;BME280;70392;51.144;17.050;2023-06-24T06:21:00;101056.17;;;17.67;86.21
80934;BME280;70392;51.144;17.050;2023-06-24T06:24:11;101059.42;;;17.72;86.24
80934;BME280;70392;51.144;17.050;2023-06-24T06:26:27;101060.78;;;17.90;85.38
80934;BME280;70392;51.144;17.050;2023-06-24T06:28:43;101056.67;;;17.87;85.50
80934;BME280;70392;51.144;17.050;2023-06-24T06:31:03;101061.29;;;17.73;85.33
80934;BME280;70392;51.144;17.050;2023-06-24T06:33:20;101062.23;;;17.66;85.53
80934;BME280;70392;51.144;17.050;2023-06-24T06:35:36;101060.54;;;17.62;85.77
80934;BME280;70392;51.144;17.050;2023-06-24T06:37:54;101057.72;;;17.60;85.79
80934;BME280;70392;51.144;17.050;2023-06-24T06:40:12;101055.18;;;17.64;86.08
80934;BME280;70392;51.144;17.050;2023-06-24T06:42:29;101060.14;;;17.69;85.97
80934;BME280;70392;51.144;17.050;2023-06-24T06:44:53;101066.89;;;17.77;85.96
80934;BME280;70392;51.144;17.050;2023-06-24T06:47:10;101061.18;;;17.81;85.89
80934;BME280;70392;51.144;17.050;2023-06-24T06:49:34;101061.36;;;17.76;85.38
80934;BME280;70392;51.144;17.050;2023-06-24T06:51:53;101058.77;;;17.77;85.46
80934;BME280;70392;51.144;17.050;2023-06-24T06:54:10;101065.97;;;17.75;85.05
80934;BME280;70392;51.144;17.050;2023-06-24T06:56:28;101071.91;;;17.73;85.07
80934;BME280;70392;51.144;17.050;2023-06-24T06:58:47;101070.16;;;17.73;84.94
80934;BME280;70392;51.144;17.050;2023-06-24T07:01:05;101065.02;;;17.73;85.10
80934;BME280;70392;51.144;17.050;2023-06-24T07:03:24;101067.12;;;17.75;85.10
80934;BME280;70392;51.144;17.050;2023-06-24T07:05:41;101072.03;;;17.74;84.80
80934;BME280;70392;51.144;17.050;2023-06-24T07:07:57;101071.09;;;17.73;85.01
80934;BME280;70392;51.144;17.050;2023-06-24T07:10:24;101075.06;;;17.77;85.20
80934;BME280;70392;51.144;17.050;2023-06-24T07:12:40;101072.62;;;17.76;85.16
80934;BME280;70392;51.144;17.050;2023-06-24T07:14:57;101076.16;;;17.75;85.37
80934;BME280;70392;51.144;17.050;2023-06-24T07:17:18;101073.02;;;17.75;85.44
80934;BME280;70392;51.144;17.050;2023-06-24T07:19:39;101072.78;;;17.75;85.45
80934;BME280;70392;51.144;17.050;2023-06-24T07:21:55;101072.72;;;17.77;85.61
80934;BME280;70392;51.144;17.050;2023-06-24T07:24:20;101080.71;;;17.78;85.37
80934;BME280;70392;51.144;17.050;2023-06-24T07:26:38;101080.71;;;17.81;85.39
80934;BME280;70392;51.144;17.050;2023-06-24T07:28:56;101083.63;;;17.80;85.53
80934;BME280;70392;51.144;17.050;2023-06-24T07:31:12;101077.97;;;17.81;85.65
80934;BME280;70392;51.144;17.050;2023-06-24T07:33:30;101082.99;;;17.76;85.47
80934;BME280;70392;51.144;17.050;2023-06-24T07:35:46;101075.21;;;17.73;85.44
80934;BME280;70392;51.144;17.050;2023-06-24T07:38:02;101077.47;;;17.69;85.56
80934;BME280;70392;51.144;17.050;2023-06-24T07:40:23;101078.51;;;17.68;85.83
80934;BME280;70392;51.144;17.050;2023-06-24T07:42:39;101077.05;;;17.68;86.09
80934;BME280;70392;51.144;17.050;2023-06-24T07:44:55;101076.01;;;17.69;86.24
80934;BME280;70392;51.144;17.050;2023-06-24T07:47:17;101078.45;;;17.75;86.17
80934;BME280;70392;51.144;17.050;2023-06-24T07:49:36;101076.52;;;17.82;86.10
80934;BME280;70392;51.144;17.050;2023-06-24T07:51:52;101078.45;;;17.92;86.10
80934;BME280;70392;51.144;17.050;2023-06-24T07:54:08;101077.08;;;18.04;86.02
80934;BME280;70392;51.144;17.050;2023-06-24T07:56:58;101082.72;;;18.20;85.83
80934;BME280;70392;51.144;17.050;2023-06-24T07:59:14;101071.22;;;18.47;84.19
80934;BME280;70392;51.144;17.050;2023-06-24T08:01:30;101070.83;;;18.53;84.02
80934;BME280;70392;51.144;17.050;2023-06-24T08:03:47;101078.69;;;18.58;84.23
80934;BME280;70392;51.144;17.050;2023-06-24T08:06:03;101084.41;;;18.65;84.23
80934;BME280;70392;51.144;17.050;2023-06-24T08:08:20;101080.17;;;18.70;83.83
80934;BME280;70392;51.144;17.050;2023-06-24T08:10:46;101083.86;;;18.84;83.62
80934;BME280;70392;51.144;17.050;2023-06-24T08:13:03;101077.66;;;18.90;83.29
80934;BME280;70392;51.144;17.050;2023-06-24T08:15:19;101084.61;;;19.10;83.54
80934;BME280;70392;51.144;17.050;2023-06-24T08:17:36;101086.73;;;19.25;83.47
80934;BME280;70392;51.144;17.050;2023-06-24T08:19:52;101085.20;;;19.29;82.65
80934;BME280;70392;51.144;17.050;2023-06-24T08:22:09;101093.45;;;19.30;82.59
80934;BME280;70392;51.144;17.050;2023-06-24T08:24:25;101095.52;;;19.34;82.83
80934;BME280;70392;51.144;17.050;2023-06-24T08:26:42;101094.45;;;19.43;82.92
80934;BME280;70392;51.144;17.050;2023-06-24T08:29:03;101096.48;;;19.43;82.38
80934;BME280;70392;51.144;17.050;2023-06-24T08:31:26;101097.75;;;19.48;82.31
80934;BME280;70392;51.144;17.050;2023-06-24T08:33:44;101091.30;;;19.55;82.29
80934;BME280;70392;51.144;17.050;2023-06-24T08:36:07;101096.16;;;19.66;82.09
80934;BME280;70392;51.144;17.050;2023-06-24T08:38:23;101097.44;;;19.59;81.12
80934;BME280;70392;51.144;17.050;2023-06-24T08:40:40;101101.94;;;19.54;81.51
80934;BME280;70392;51.144;17.050;2023-06-24T08:42:58;101107.80;;;19.53;81.94
80934;BME280;70392;51.144;17.050;2023-06-24T08:45:20;101106.21;;;19.50;81.80
80934;BME280;70392;51.144;17.050;2023-06-24T08:47:36;101108.06;;;19.52;82.13
80934;BME280;70392;51.144;17.050;2023-06-24T08:50:01;101105.33;;;19.44;81.36
80934;BME280;70392;51.144;17.050;2023-06-24T08:52:26;101104.80;;;19.37;82.16
80934;BME280;70392;51.144;17.050;2023-06-24T08:55:07;101103.98;;;19.37;82.68
80934;BME280;70392;51.144;17.050;2023-06-24T08:57:25;101109.70;;;19.33;82.64
80934;BME280;70392;51.144;17.050;2023-06-24T08:59:43;101101.71;;;19.26;83.09
80934;BME280;70392;51.144;17.050;2023-06-24T09:01:59;101112.20;;;19.19;83.26
80934;BME280;70392;51.144;17.050;2023-06-24T09:04:24;101111.26;;;19.12;83.19
80934;BME280;70392;51.144;17.050;2023-06-24T09:06:40;101111.76;;;19.08;83.76
80934;BME280;70392;51.144;17.050;2023-06-24T09:08:57;101110.56;;;19.02;83.76
80934;BME280;70392;51.144;17.050;2023-06-24T09:11:25;101122.00;;;19.03;83.86
80934;BME280;70392;51.144;17.050;2023-06-24T09:13:44;101119.60;;;19.01;84.01
80934;BME280;70392;51.144;17.050;2023-06-24T09:16:02;101116.17;;;18.98;84.06
80934;BME280;70392;51.144;17.050;2023-06-24T09:18:32;101118.27;;;19.02;84.05
80934;BME280;70392;51.144;17.050;2023-06-24T09:20:49;101121.68;;;19.05;84.05
80934;BME280;70392;51.144;17.050;2023-06-24T09:23:26;101123.16;;;19.18;83.84
80934;BME280;70392;51.144;17.050;2023-06-24T09:25:42;101124.71;;;19.31;83.62
80934;BME280;70392;51.144;17.050;2023-06-24T09:28:00;101118.57;;;19.40;83.21
80934;BME280;70392;51.144;17.050;2023-06-24T09:30:20;101118.30;;;19.52;83.00
80934;BME280;70392;51.144;17.050;2023-06-24T09:32:36;101115.39;;;19.58;82.29
80934;BME280;70392;51.144;17.050;2023-06-24T09:35:03;101115.36;;;19.73;82.37
80934;BME280;70392;51.144;17.050;2023-06-24T09:37:24;101114.51;;;19.90;82.28
80934;BME280;70392;51.144;17.050;2023-06-24T09:39:40;101108.01;;;20.08;82.14
80934;BME280;70392;51.144;17.050;2023-06-24T09:41:58;101111.67;;;20.27;81.72
80934;BME280;70392;51.144;17.050;2023-06-24T09:44:16;101111.31;;;20.40;81.20
80934;BME280;70392;51.144;17.050;2023-06-24T09:46:37;101105.56;;;20.51;80.67
80934;BME280;70392;51.144;17.050;2023-06-24T09:48:53;101103.91;;;20.66;80.69
80934;BME280;70392;51.144;17.050;2023-06-24T09:51:12;101110.29;;;20.80;80.89
80934;BME280;70392;51.144;17.050;2023-06-24T09:53:33;101110.66;;;20.93;80.19
80934;BME280;70392;51.144;17.050;2023-06-24T09:55:56;101113.91;;;21.05;79.71
80934;BME280;70392;51.144;17.050;2023-06-24T09:58:13;101119.07;;;21.11;79.63
80934;BME280;70392;51.144;17.050;2023-06-24T10:00:37;101114.56;;;21.13;79.32
80934;BME280;70392;51.144;17.050;2023-06-24T10:02:55;101123.70;;;21.17;79.80
80934;BME280;70392;51.144;17.050;2023-06-24T10:05:14;101113.55;;;21.24;79.67
80934;BME280;70392;51.144;17.050;2023-06-24T10:07:32;101120.38;;;21.25;78.99
80934;BME280;70392;51.144;17.050;2023-06-24T10:09:50;101115.78;;;21.22;79.02
80934;BME280;70392;51.144;17.050;2023-06-24T10:12:07;101110.98;;;21.19;77.70
80934;BME280;70392;51.144;17.050;2023-06-24T10:14:25;101115.14;;;21.21;79.15
80934;BME280;70392;51.144;17.050;2023-06-24T10:16:42;101118.94;;;21.27;79.26
80934;BME280;70392;51.144;17.050;2023-06-24T10:19:03;101112.77;;;21.33;78.74
80934;BME280;70392;51.144;17.050;2023-06-24T10:24:04;101114.75;;;21.41;78.54
80934;BME280;70392;51.144;17.050;2023-06-24T10:26:26;101117.48;;;21.45;79.32
80934;BME280;70392;51.144;17.050;2023-06-24T10:29:09;101110.84;;;21.48;78.43
80934;BME280;70392;51.144;17.050;2023-06-24T10:32:09;101103.86;;;21.53;76.07
80934;BME280;70392;51.144;17.050;2023-06-24T10:34:38;101102.84;;;21.75;76.20
80934;BME280;70392;51.144;17.050;2023-06-24T10:37:03;101111.72;;;21.71;76.09
80934;BME280;70392;51.144;17.050;2023-06-24T10:41:45;101095.49;;;21.66;77.44
80934;BME280;70392;51.144;17.050;2023-06-24T10:44:14;101094.77;;;21.70;77.92
80934;BME280;70392;51.144;17.050;2023-06-24T10:46:33;101098.90;;;21.79;76.98
80934;BME280;70392;51.144;17.050;2023-06-24T10:48:49;101103.73;;;21.96;77.59
80934;BME280;70392;51.144;17.050;2023-06-24T10:51:16;101107.77;;;22.26;75.95
80934;BME280;70392;51.144;17.050;2023-06-24T10:53:32;101099.26;;;22.64;75.14
80934;BME280;70392;51.144;17.050;2023-06-24T10:55:49;101104.85;;;23.19;74.28
80934;BME280;70392;51.144;17.050;2023-06-24T10:58:09;101102.33;;;23.59;73.00
80934;BME280;70392;51.144;17.050;2023-06-24T11:00:25;101099.95;;;24.20;70.31
80934;BME280;70392;51.144;17.050;2023-06-24T11:02:44;101103.91;;;24.53;71.37
80934;BME280;70392;51.144;17.050;2023-06-24T11:05:03;101097.11;;;24.89;69.77
80934;BME280;70392;51.144;17.050;2023-06-24T11:07:21;101094.69;;;25.25;70.85
80934;BME280;70392;51.144;17.050;2023-06-24T11:09:42;101086.75;;;25.37;68.78
80934;BME280;70392;51.144;17.050;2023-06-24T11:12:04;101092.40;;;25.33;67.66
80934;BME280;70392;51.144;17.050;2023-06-24T11:14:20;101088.23;;;25.40;68.20
80934;BME280;70392;51.144;17.050;2023-06-24T11:16:38;101089.80;;;25.47;68.48
80934;BME280;70392;51.144;17.050;2023-06-24T11:18:55;101079.22;;;25.59;68.71
80934;BME280;70392;51.144;17.050;2023-06-24T11:21:12;101083.66;;;25.48;69.67
80934;BME280;70392;51.144;17.050;2023-06-24T11:23:28;101081.13;;;25.44;65.58
80934;BME280;70392;51.144;17.050;2023-06-24T11:25:47;101082.35;;;25.23;68.16
80934;BME280;70392;51.144;17.050;2023-06-24T11:28:03;101071.48;;;25.29;66.91
80934;BME280;70392;51.144;17.050;2023-06-24T11:30:20;101064.20;;;25.38;66.94
80934;BME280;70392;51.144;17.050;2023-06-24T11:32:40;101061.67;;;25.39;65.47
80934;BME280;70392;51.144;17.050;2023-06-24T11:34:59;101052.55;;;25.31;68.88
80934;BME280;70392;51.144;17.050;2023-06-24T11:37:18;101061.65;;;25.39;69.19
80934;BME280;70392;51.144;17.050;2023-06-24T11:39:41;101054.67;;;25.52;64.51
80934;BME280;70392;51.144;17.050;2023-06-24T11:41:57;101051.80;;;25.66;66.94
80934;BME280;70392;51.144;17.050;2023-06-24T11:44:17;101048.95;;;25.77;66.87
80934;BME280;70392;51.144;17.050;2023-06-24T11:46:37;101042.03;;;25.92;66.92
80934;BME280;70392;51.144;17.050;2023-06-24T11:49:14;101051.94;;;26.00;64.91
80934;BME280;70392;51.144;17.050;2023-06-24T11:51:35;101038.09;;;26.01;66.96
80934;BME280;70392;51.144;17.050;2023-06-24T11:53:51;101033.29;;;25.96;68.47
80934;BME280;70392;51.144;17.050;2023-06-24T11:56:07;101038.15;;;26.10;64.46
80934;BME280;70392;51.144;17.050;2023-06-24T11:58:23;101033.75;;;26.12;66.30
80934;BME280;70392;51.144;17.050;2023-06-24T12:00:42;101025.16;;;25.82;67.46
80934;BME280;70392;51.144;17.050;2023-06-24T12:03:22;101033.29;;;25.91;65.29
80934;BME280;70392;51.144;17.050;2023-06-24T12:05:46;101025.48;;;26.19;62.33
80934;BME280;70392;51.144;17.050;2023-06-24T12:08:14;101024.59;;;26.52;63.02
80934;BME280;70392;51.144;17.050;2023-06-24T12:10:34;101018.29;;;26.59;62.86
80934;BME280;70392;51.144;17.050;2023-06-24T12:12:57;101021.88;;;26.39;62.22
80934;BME280;70392;51.144;17.050;2023-06-24T12:15:14;101019.62;;;26.18;64.42
80934;BME280;70392;51.144;17.050;2023-06-24T12:17:30;101010.52;;;26.30;63.32